sensor_id;sensor_type;location;lat;lon;timestamp;pressure;altitude;pressure_sealevel;temperature;humidity
1207;BME280;593;53.184;8.216;2022-11-18T00:00:17;99507.31;;;8.30;100.00
1207;BME280;593;53.184;8.216;2022-11-18T00:02:43;99520.84;;;8.30;100.00
1207;BME280;593;53.184;8.216;2022-11-18T00:05:08;99521.16;;;8.29;100.00
1207;BME280;593;53.184;8.216;2022-11-18T00:07:33;99518.72;;;8.27;100.00
1207;BME280;593;53.184;8.216;2022-11-18T00:09:58;99512.53;;;8.22;100.00
1207;BME280;593;53.184;8.216;2022-11-18T00:12:24;99516.28;;;8.26;100.00
1207;BME280;593;53.184;8.216;2022-11-18T00:15:21;99530.69;;;8.26;100.00
1207;BME280;593;53.184;8.216;2022-11-18T00:17:47;99525.25;;;8.26;100.00
1207;BME280;593;53.184;8.216;2022-11-18T00:20:12;99520.97;;;8.20;100.00
1207;BME280;593;53.184;8.216;2022-11-18T00:22:37;99522.28;;;8.23;100.00
1207;BME280;593;53.184;8.216;2022-11-18T00:25:03;99533.13;;;8.23;100.00
1207;BME280;593;53.184;8.216;2022-11-18T00:27:29;99550.19;;;8.23;100.00
1207;BME280;593;53.184;8.216;2022-11-18T00:29:57;99535.91;;;8.18;100.00
1207;BME280;593;53.184;8.216;2022-11-18T00:32:23;99550.19;;;8.23;100.00
1207;BME280;593;53.184;8.216;2022-11-18T00:34:48;99540.25;;;8.19;100.00
1207;BME280;593;53.184;8.216;2022-11-18T00:37:13;99533.78;;;8.15;100.00
1207;BME280;593;53.184;8.216;2022-11-18T00:39:39;99551.59;;;8.21;100.00
1207;BME280;593;53.184;8.216;2022-11-18T00:42:04;99554.28;;;8.21;100.00
1207;BME280;593;53.184;8.216;2022-11-18T00:44:49;99556.50;;;8.19;100.00
1207;BME280;593;53.184;8.216;2022-11-18T00:47:14;99553.78;;;8.19;100.00
1207;BME280;593;53.184;8.216;2022-11-18T00:49:39;99553.47;;;8.20;100.00
1207;BME280;593;53.184;8.216;2022-11-18T00:52:05;99547.31;;;8.15;100.00
1207;BME280;593;53.184;8.216;2022-11-18T00:54:30;99555.19;;;8.16;100.00
1207;BME280;593;53.184;8.216;2022-11-18T00:56:55;99548.44;;;8.14;100.00
1207;BME280;593;53.184;8.216;2022-11-18T00:59:21;99540.25;;;8.19;100.00
1207;BME280;593;53.184;8.216;2022-11-18T01:01:46;99556.50;;;8.19;100.00
1207;BME280;593;53.184;8.216;2022-11-18T01:04:13;99558.38;;;8.18;100.00
1207;BME280;593;53.184;8.216;2022-11-18T01:06:38;99565.69;;;8.18;100.00
1207;BME280;593;53.184;8.216;2022-11-18T01:09:04;99565.19;;;8.16;100.00
1207;BME280;593;53.184;8.216;2022-11-18T01:11:29;99565.19;;;8.16;100.00
1207;BME280;593;53.184;8.216;2022-11-18T01:14:13;99563.31;;;8.16;100.00
1207;BME280;593;53.184;8.216;2022-11-18T01:16:38;99572.00;;;8.13;100.00
1207;BME280;593;53.184;8.216;2022-11-18T01:19:04;99573.59;;;8.14;100.00
1207;BME280;593;53.184;8.216;2022-11-18T01:21:29;99584.97;;;8.16;100.00
1207;BME280;593;53.184;8.216;2022-11-18T01:23:55;99580.63;;;8.15;100.00
1207;BME280;593;53.184;8.216;2022-11-18T01:26:20;99583.13;;;8.12;100.00
1207;BME280;593;53.184;8.216;2022-11-18T01:28:46;99589.06;;;8.14;100.00
1207;BME280;593;53.184;8.216;2022-11-18T01:31:13;99593.94;;;8.12;100.00
1207;BME280;593;53.184;8.216;2022-11-18T01:33:39;99596.38;;;8.13;100.00
1207;BME280;593;53.184;8.216;2022-11-18T01:36:14;99583.72;;;8.09;100.00
1207;BME280;593;53.184;8.216;2022-11-18T01:38:40;99588.53;;;8.12;100.00
1207;BME280;593;53.184;8.216;2022-11-18T01:41:05;99593.94;;;8.12;100.00
1207;BME280;593;53.184;8.216;2022-11-18T01:43:59;99590.47;;;8.11;100.00
1207;BME280;593;53.184;8.216;2022-11-18T01:46:27;99599.66;;;8.10;100.00
1207;BME280;593;53.184;8.216;2022-11-18T01:49:13;99590.22;;;8.08;100.00
1207;BME280;593;53.184;8.216;2022-11-18T01:51:49;99594.56;;;8.09;100.00
1207;BME280;593;53.184;8.216;2022-11-18T01:54:37;99592.63;;;8.09;100.00
1207;BME280;593;53.184;8.216;2022-11-18T01:57:08;99587.59;;;8.03;100.00
1207;BME280;593;53.184;8.216;2022-11-18T01:59:38;99592.50;;;8.01;100.00
1207;BME280;593;53.184;8.216;2022-11-18T02:02:09;99600.25;;;8.07;100.00
1207;BME280;593;53.184;8.216;2022-11-18T02:04:38;99594.63;;;8.04;100.00
1207;BME280;593;53.184;8.216;2022-11-18T02:07:05;99605.97;;;8.06;100.00
1207;BME280;593;53.184;8.216;2022-11-18T02:09:31;99617.06;;;8.04;100.00
1207;BME280;593;53.184;8.216;2022-11-18T02:11:56;99614.91;;;8.06;100.00
1207;BME280;593;53.184;8.216;2022-11-18T02:14:27;99607.84;;;8.05;100.00
1207;BME280;593;53.184;8.216;2022-11-18T02:33:42;99621.47;;;8.00;100.00
1207;BME280;593;53.184;8.216;2022-11-18T02:36:16;99619.56;;;8.01;100.00
1207;BME280;593;53.184;8.216;2022-11-18T02:38:47;99619.56;;;8.01;100.00
1207;BME280;593;53.184;8.216;2022-11-18T02:41:17;99608.50;;;7.97;100.00
1207;BME280;593;53.184;8.216;2022-11-18T02:43:46;99603.66;;;7.94;100.00
1207;BME280;593;53.184;8.216;2022-11-18T02:46:17;99617.94;;;8.00;100.00
1207;BME280;593;53.184;8.216;2022-11-18T02:48:47;99621.47;;;8.00;100.00
1207;BME280;593;53.184;8.216;2022-11-18T02:51:32;99639.09;;;7.98;100.00
1207;BME280;593;53.184;8.216;2022-11-18T02:54:02;99641.28;;;7.96;100.00
1207;BME280;593;53.184;8.216;2022-11-18T02:56:30;99632.88;;;7.97;100.00
1207;BME280;593;53.184;8.216;2022-11-18T02:58:56;99638.59;;;7.96;100.00
1207;BME280;593;53.184;8.216;2022-11-18T03:01:25;99644.28;;;7.94;100.00
1207;BME280;593;53.184;8.216;2022-11-18T03:03:52;99638.34;;;7.92;100.00
1207;BME280;593;53.184;8.216;2022-11-18T03:11:53;99657.53;;;7.96;100.00
1207;BME280;593;53.184;8.216;2022-11-18T03:20:09;99667.03;;;7.93;100.00
1207;BME280;593;53.184;8.216;2022-11-18T03:22:41;99667.31;;;7.92;100.00
1207;BME280;593;53.184;8.216;2022-11-18T03:28:13;99665.78;;;7.86;100.00
1207;BME280;593;53.184;8.216;2022-11-18T03:30:46;99673.34;;;7.89;100.00
1207;BME280;593;53.184;8.216;2022-11-18T03:33:20;99675.75;;;7.90;100.00
1207;BME280;593;53.184;8.216;2022-11-18T03:35:49;99683.03;;;7.90;100.00
1207;BME280;593;53.184;8.216;2022-11-18T03:38:21;99689.84;;;7.87;100.00
1207;BME280;593;53.184;8.216;2022-11-18T03:40:54;99689.03;;;7.87;100.00
1207;BME280;593;53.184;8.216;2022-11-18T03:43:24;99689.03;;;7.87;100.00
1207;BME280;593;53.184;8.216;2022-11-18T03:45:55;99683.63;;;7.87;100.00
1207;BME280;593;53.184;8.216;2022-11-18T03:48:25;99680.97;;;7.82;100.00
1207;BME280;593;53.184;8.216;2022-11-18T03:50:58;99690.97;;;7.86;100.00
1207;BME280;593;53.184;8.216;2022-11-18T03:53:27;99692.84;;;7.86;100.00
1207;BME280;593;53.184;8.216;2022-11-18T03:56:17;99696.44;;;7.81;100.00
1207;BME280;593;53.184;8.216;2022-11-18T03:58:52;99710.47;;;7.83;100.00
1207;BME280;593;53.184;8.216;2022-11-18T04:01:26;99704.59;;;7.76;100.00
1207;BME280;593;53.184;8.216;2022-11-18T04:03:53;99710.22;;;7.80;100.00
1207;BME280;593;53.184;8.216;2022-11-18T04:06:58;99718.88;;;7.82;100.00
1207;BME280;593;53.184;8.216;2022-11-18T04:09:29;99718.91;;;7.76;100.00
1207;BME280;593;53.184;8.216;2022-11-18T04:12:02;99721.88;;;7.80;100.00
1207;BME280;593;53.184;8.216;2022-11-18T04:14:35;99731.88;;;7.80;100.00
1207;BME280;593;53.184;8.216;2022-11-18T04:17:21;99731.38;;;7.78;100.00
1207;BME280;593;53.184;8.216;2022-11-18T04:19:47;99731.06;;;7.79;100.00
1207;BME280;593;53.184;8.216;2022-11-18T04:22:13;99732.69;;;7.80;100.00
1207;BME280;593;53.184;8.216;2022-11-18T04:24:39;99736.47;;;7.79;100.00
1207;BME280;593;53.184;8.216;2022-11-18T04:27:05;99734.38;;;7.76;100.00
1207;BME280;593;53.184;8.216;2022-11-18T04:29:32;99743.81;;;7.79;100.00
1207;BME280;593;53.184;8.216;2022-11-18T04:31:58;99749.25;;;7.79;100.00
1207;BME280;593;53.184;8.216;2022-11-18T04:34:24;99746.53;;;7.79;100.00
1207;BME280;593;53.184;8.216;2022-11-18T04:36:50;99741.97;;;7.74;100.00
1207;BME280;593;53.184;8.216;2022-11-18T04:39:15;99756.81;;;7.76;100.00
1207;BME280;593;53.184;8.216;2022-11-18T04:41:42;99760.94;;;7.74;100.00
1207;BME280;593;53.184;8.216;2022-11-18T04:44:30;99769.81;;;7.74;100.00
1207;BME280;593;53.184;8.216;2022-11-18T04:46:58;99756.94;;;7.66;100.00
1207;BME280;593;53.184;8.216;2022-11-18T04:49:24;99774.72;;;7.72;100.00
1207;BME280;593;53.184;8.216;2022-11-18T04:51:51;99776.34;;;7.73;100.00
1207;BME280;593;53.184;8.216;2022-11-18T04:54:17;99780.44;;;7.71;100.00
1207;BME280;593;53.184;8.216;2022-11-18T04:56:43;99778.00;;;7.69;100.00
1207;BME280;593;53.184;8.216;2022-11-18T04:59:09;99777.22;;;7.69;100.00
1207;BME280;593;53.184;8.216;2022-11-18T05:01:35;99772.06;;;7.67;100.00
1207;BME280;593;53.184;8.216;2022-11-18T05:04:02;99778.28;;;7.68;100.00
1207;BME280;593;53.184;8.216;2022-11-18T05:06:27;99774.25;;;7.65;100.00
1207;BME280;593;53.184;8.216;2022-11-18T05:08:53;99771.03;;;7.63;100.00
1207;BME280;593;53.184;8.216;2022-11-18T05:11:19;99771.59;;;7.60;100.00
1207;BME280;593;53.184;8.216;2022-11-18T05:14:03;99775.94;;;7.61;100.00
1207;BME280;593;53.184;8.216;2022-11-18T05:16:28;99768.09;;;7.60;100.00
1207;BME280;593;53.184;8.216;2022-11-18T05:18:54;99781.91;;;7.58;100.00
1207;BME280;593;53.184;8.216;2022-11-18T05:21:19;99781.94;;;7.53;100.00
1207;BME280;593;53.184;8.216;2022-11-18T05:23:44;99785.50;;;7.49;100.00
1207;BME280;593;53.184;8.216;2022-11-18T05:26:10;99788.75;;;7.51;100.00
1207;BME280;593;53.184;8.216;2022-11-18T05:28:37;99777.16;;;7.45;100.00
1207;BME280;593;53.184;8.216;2022-11-18T05:31:10;99789.28;;;7.48;100.00
1207;BME280;593;53.184;8.216;2022-11-18T05:33:36;99784.19;;;7.46;100.00
1207;BME280;593;53.184;8.216;2022-11-18T05:36:06;99785.25;;;7.45;100.00
1207;BME280;593;53.184;8.216;2022-11-18T05:38:33;99786.38;;;7.39;100.00
1207;BME280;593;53.184;8.216;2022-11-18T05:40:59;99792.91;;;7.38;100.00
1207;BME280;593;53.184;8.216;2022-11-18T05:43:25;99800.19;;;7.38;100.00
1207;BME280;593;53.184;8.216;2022-11-18T05:45:50;99796.16;;;7.35;100.00
1207;BME280;593;53.184;8.216;2022-11-18T05:48:16;99804.28;;;7.35;100.00
1207;BME280;593;53.184;8.216;2022-11-18T05:50:46;99809.44;;;7.32;100.00
1207;BME280;593;53.184;8.216;2022-11-18T05:53:11;99818.09;;;7.34;100.00
1207;BME280;593;53.184;8.216;2022-11-18T05:55:48;99822.69;;;7.33;100.00
1207;BME280;593;53.184;8.216;2022-11-18T05:58:16;99833.78;;;7.32;100.00
1207;BME280;593;53.184;8.216;2022-11-18T06:00:42;99838.09;;;7.33;100.00
1207;BME280;593;53.184;8.216;2022-11-18T06:03:17;99840.56;;;7.29;100.00
1207;BME280;593;53.184;8.216;2022-11-18T06:05:44;99842.72;;;7.27;100.00
1207;BME280;593;53.184;8.216;2022-11-18T06:08:10;99850.31;;;7.25;100.00
1207;BME280;593;53.184;8.216;2022-11-18T06:10:37;99839.50;;;7.25;100.00
1207;BME280;593;53.184;8.216;2022-11-18T06:13:07;99846.81;;;7.25;100.00
1207;BME280;593;53.184;8.216;2022-11-18T06:15:39;99845.47;;;7.22;100.00
1207;BME280;593;53.184;8.216;2022-11-18T06:18:19;99851.72;;;7.18;100.00
1207;BME280;593;53.184;8.216;2022-11-18T06:20:47;99857.66;;;7.20;100.00
1207;BME280;593;53.184;8.216;2022-11-18T06:23:13;99862.25;;;7.19;100.00
1207;BME280;593;53.184;8.216;2022-11-18T06:25:39;99864.94;;;7.19;100.00
1207;BME280;593;53.184;8.216;2022-11-18T06:28:05;99866.06;;;7.18;100.00
1207;BME280;593;53.184;8.216;2022-11-18T06:30:31;99864.44;;;7.17;100.00
1207;BME280;593;53.184;8.216;2022-11-18T06:32:56;99869.84;;;7.17;100.00
1207;BME280;593;53.184;8.216;2022-11-18T06:35:22;99862.84;;;7.16;100.00
1207;BME280;593;53.184;8.216;2022-11-18T06:37:48;99872.84;;;7.16;100.00
1207;BME280;593;53.184;8.216;2022-11-18T06:40:13;99872.84;;;7.16;100.00
1207;BME280;593;53.184;8.216;2022-11-18T06:42:47;99881.47;;;7.18;100.00
1207;BME280;593;53.184;8.216;2022-11-18T06:45:31;99875.81;;;7.14;100.00
1207;BME280;593;53.184;8.216;2022-11-18T06:47:57;99856.16;;;6.98;100.00
1207;BME280;593;53.184;8.216;2022-11-18T06:50:23;99880.16;;;7.10;100.00
1207;BME280;593;53.184;8.216;2022-11-18T06:52:49;99877.19;;;7.06;100.00
1207;BME280;593;53.184;8.216;2022-11-18T06:55:14;99886.63;;;7.09;100.00
1207;BME280;593;53.184;8.216;2022-11-18T06:57:40;99899.09;;;7.10;100.00
1207;BME280;593;53.184;8.216;2022-11-18T07:00:06;99895.84;;;7.08;100.00
1207;BME280;593;53.184;8.216;2022-11-18T07:02:31;99896.94;;;7.07;100.00
1207;BME280;593;53.184;8.216;2022-11-18T07:04:59;99908.03;;;7.05;100.00
1207;BME280;593;53.184;8.216;2022-11-18T07:07:25;99906.16;;;7.06;100.00
1207;BME280;593;53.184;8.216;2022-11-18T07:09:50;99913.44;;;7.05;100.00
1207;BME280;593;53.184;8.216;2022-11-18T07:12:15;99918.31;;;7.03;100.00
1207;BME280;593;53.184;8.216;2022-11-18T07:14:41;99925.34;;;7.04;100.00
1207;BME280;593;53.184;8.216;2022-11-18T07:17:06;99915.09;;;6.96;100.00
1207;BME280;593;53.184;8.216;2022-11-18T07:19:31;99938.88;;;6.99;100.00
1207;BME280;593;53.184;8.216;2022-11-18T07:21:57;99943.22;;;6.95;100.00
1207;BME280;593;53.184;8.216;2022-11-18T07:24:23;99940.53;;;6.90;100.00
1207;BME280;593;53.184;8.216;2022-11-18T07:26:48;99947.00;;;6.94;100.00
1207;BME280;593;53.184;8.216;2022-11-18T07:29:14;99950.00;;;6.93;100.00
1207;BME280;593;53.184;8.216;2022-11-18T07:31:50;99958.63;;;6.95;100.00
1207;BME280;593;53.184;8.216;2022-11-18T07:34:23;99962.41;;;6.89;100.00
1207;BME280;593;53.184;8.216;2022-11-18T07:36:48;99977.84;;;6.93;100.00
1207;BME280;593;53.184;8.216;2022-11-18T07:39:14;99981.63;;;6.92;100.00
1207;BME280;593;53.184;8.216;2022-11-18T07:41:39;99979.75;;;6.88;100.00
1207;BME280;593;53.184;8.216;2022-11-18T07:44:05;99977.56;;;6.85;100.00
1207;BME280;593;53.184;8.216;2022-11-18T07:46:34;99991.63;;;6.87;100.00
1207;BME280;593;53.184;8.216;2022-11-18T07:49:01;99983.50;;;6.87;100.00
1207;BME280;593;53.184;8.216;2022-11-18T07:51:29;100006.25;;;6.86;100.00
1207;BME280;593;53.184;8.216;2022-11-18T07:53:56;99987.31;;;6.86;100.00
1207;BME280;593;53.184;8.216;2022-11-18T07:56:21;100003.78;;;6.84;100.00
1207;BME280;593;53.184;8.216;2022-11-18T07:58:50;100004.59;;;6.85;100.00
1207;BME280;593;53.184;8.216;2022-11-18T08:01:18;99999.50;;;6.83;100.00
1207;BME280;593;53.184;8.216;2022-11-18T08:03:44;100011.66;;;6.81;100.00
1207;BME280;593;53.184;8.216;2022-11-18T08:06:11;100008.97;;;6.76;100.00
1207;BME280;593;53.184;8.216;2022-11-18T08:08:37;100011.38;;;6.77;100.00
1207;BME280;593;53.184;8.216;2022-11-18T08:11:05;100020.31;;;6.78;100.00
1207;BME280;593;53.184;8.216;2022-11-18T08:13:31;100023.28;;;6.76;100.00
1207;BME280;593;53.184;8.216;2022-11-18T08:15:57;100014.09;;;6.72;100.00
1207;BME280;593;53.184;8.216;2022-11-18T08:18:23;100021.38;;;6.77;100.00
1207;BME280;593;53.184;8.216;2022-11-18T08:20:49;100016.78;;;6.72;100.00
1207;BME280;593;53.184;8.216;2022-11-18T08:23:15;100017.09;;;6.66;100.00
1207;BME280;593;53.184;8.216;2022-11-18T08:25:42;100025.72;;;6.68;100.00
1207;BME280;593;53.184;8.216;2022-11-18T08:28:08;100035.72;;;6.67;100.00
1207;BME280;593;53.184;8.216;2022-11-18T08:30:34;100033.56;;;6.64;100.00
1207;BME280;593;53.184;8.216;2022-11-18T08:33:00;100038.94;;;6.69;100.00
1207;BME280;593;53.184;8.216;2022-11-18T08:35:31;100035.47;;;6.69;100.00
1207;BME280;593;53.184;8.216;2022-11-18T08:38:01;100042.22;;;6.66;100.00
1207;BME280;593;53.184;8.216;2022-11-18T08:40:26;100050.56;;;6.70;100.00
1207;BME280;593;53.184;8.216;2022-11-18T08:42:52;100051.09;;;6.72;100.00
1207;BME280;593;53.184;8.216;2022-11-18T08:45:17;100051.38;;;6.75;100.00
1207;BME280;593;53.184;8.216;2022-11-18T08:47:42;100051.91;;;6.77;100.00
1207;BME280;593;53.184;8.216;2022-11-18T08:50:09;100045.97;;;6.75;100.00
1207;BME280;593;53.184;8.216;2022-11-18T08:52:35;100054.63;;;6.77;100.00
1207;BME280;593;53.184;8.216;2022-11-18T08:55:00;100061.13;;;6.81;100.00
1207;BME280;593;53.184;8.216;2022-11-18T08:57:26;100068.94;;;6.83;100.00
1207;BME280;593;53.184;8.216;2022-11-18T08:59:51;100069.75;;;6.83;100.00
1207;BME280;593;53.184;8.216;2022-11-18T09:02:19;100074.88;;;6.85;100.00
1207;BME280;593;53.184;8.216;2022-11-18T09:04:49;100075.41;;;6.87;100.00
1207;BME280;593;53.184;8.216;2022-11-18T09:07:16;100078.94;;;6.82;100.00
1207;BME280;593;53.184;8.216;2022-11-18T09:09:41;100084.34;;;6.82;100.00
1207;BME280;593;53.184;8.216;2022-11-18T09:12:07;100086.78;;;6.79;100.00
1207;BME280;593;53.184;8.216;2022-11-18T09:14:34;100078.69;;;6.79;100.00
1207;BME280;593;53.184;8.216;2022-11-18T09:17:00;100085.97;;;6.78;100.00
1207;BME280;593;53.184;8.216;2022-11-18T09:19:25;100089.50;;;6.79;100.00
1207;BME280;593;53.184;8.216;2022-11-18T09:21:51;100086.50;;;6.80;100.00
1207;BME280;593;53.184;8.216;2022-11-18T09:24:16;100090.56;;;6.78;100.00
1207;BME280;593;53.184;8.216;2022-11-18T09:26:42;100097.31;;;6.80;100.00
1207;BME280;593;53.184;8.216;2022-11-18T09:29:07;100101.09;;;6.79;100.00
1207;BME280;593;53.184;8.216;2022-11-18T09:31:33;100113.81;;;6.79;100.00
1207;BME280;593;53.184;8.216;2022-11-18T09:33:58;100119.22;;;6.79;100.00
1207;BME280;593;53.184;8.216;2022-11-18T09:36:25;100111.38;;;6.77;100.00
1207;BME280;593;53.184;8.216;2022-11-18T09:38:51;100114.34;;;6.76;100.00
1207;BME280;593;53.184;8.216;2022-11-18T09:49:28;100140.03;;;6.68;100.00
1207;BME280;593;53.184;8.216;2022-11-18T09:51:55;100139.50;;;6.66;100.00
1207;BME280;593;53.184;8.216;2022-11-18T09:54:23;100148.13;;;6.68;100.00
1207;BME280;593;53.184;8.216;2022-11-18T09:56:52;100151.38;;;6.70;100.00
1207;BME280;593;53.184;8.216;2022-11-18T09:59:20;100137.84;;;6.70;100.00
1207;BME280;593;53.184;8.216;2022-11-18T10:01:47;100148.38;;;6.72;100.00
1207;BME280;593;53.184;8.216;2022-11-18T10:04:15;100152.19;;;6.71;100.00
1207;BME280;593;53.184;8.216;2022-11-18T10:06:42;100152.19;;;6.71;100.00
1207;BME280;593;53.184;8.216;2022-11-18T10:09:18;100155.69;;;6.71;100.00
1207;BME280;593;53.184;8.216;2022-11-18T10:17:34;100171.63;;;6.68;100.00
1207;BME280;593;53.184;8.216;2022-11-18T10:25:16;100182.16;;;6.64;100.00
1207;BME280;593;53.184;8.216;2022-11-18T10:27:44;100192.97;;;6.64;100.00
1207;BME280;593;53.184;8.216;2022-11-18T10:30:17;100192.16;;;6.64;100.00
1207;BME280;593;53.184;8.216;2022-11-18T10:35:25;100194.31;;;6.67;100.00
1207;BME280;593;53.184;8.216;2022-11-18T10:41:05;100196.22;;;6.66;100.00
1207;BME280;593;53.184;8.216;2022-11-18T10:43:52;100208.09;;;6.65;100.00
1207;BME280;593;53.184;8.216;2022-11-18T10:46:31;100214.31;;;6.66;100.00
1207;BME280;593;53.184;8.216;2022-11-18T10:51:40;100215.91;;;6.62;100.00
1207;BME280;593;53.184;8.216;2022-11-18T10:56:50;100225.13;;;6.66;100.00
1207;BME280;593;53.184;8.216;2022-11-18T11:02:13;100225.66;;;6.63;100.00
1207;BME280;593;53.184;8.216;2022-11-18T11:04:40;100213.47;;;6.55;100.00
1207;BME280;593;53.184;8.216;2022-11-18T11:07:31;100228.06;;;6.54;100.00
1207;BME280;593;53.184;8.216;2022-11-18T11:12:35;100225.38;;;6.59;100.00
1207;BME280;593;53.184;8.216;2022-11-18T11:15:09;100208.88;;;6.45;100.00
1207;BME280;593;53.184;8.216;2022-11-18T11:17:53;100221.31;;;6.57;100.00
1207;BME280;593;53.184;8.216;2022-11-18T11:20:40;100224.28;;;6.50;100.00
1207;BME280;593;53.184;8.216;2022-11-18T11:23:09;100230.50;;;6.56;100.00
1207;BME280;593;53.184;8.216;2022-11-18T11:25:58;100228.06;;;6.54;100.00
1207;BME280;593;53.184;8.216;2022-11-18T11:28:43;100239.44;;;6.56;100.00
1207;BME280;593;53.184;8.216;2022-11-18T11:33:55;100241.31;;;6.56;100.00
1207;BME280;593;53.184;8.216;2022-11-18T11:36:47;100243.19;;;6.55;100.00
1207;BME280;593;53.184;8.216;2022-11-18T11:42:12;100254.28;;;6.54;100.00
1207;BME280;593;53.184;8.216;2022-11-18T11:45:00;100252.66;;;6.53;100.00
1207;BME280;593;53.184;8.216;2022-11-18T11:50:21;100265.63;;;6.51;100.00
1207;BME280;593;53.184;8.216;2022-11-18T11:56:10;100261.81;;;6.52;100.00
1207;BME280;593;53.184;8.216;2022-11-18T11:59:11;100262.09;;;6.50;100.00
1207;BME280;593;53.184;8.216;2022-11-18T12:07:21;100264.50;;;6.46;100.00
1207;BME280;593;53.184;8.216;2022-11-18T12:18:18;100268.84;;;6.53;100.00
1207;BME280;593;53.184;8.216;2022-11-18T12:20:50;100271.03;;;6.51;100.00
1207;BME280;593;53.184;8.216;2022-11-18T12:23:24;100254.47;;;6.37;100.00
1207;BME280;593;53.184;8.216;2022-11-18T12:28:27;100277.75;;;6.48;100.00
1207;BME280;593;53.184;8.216;2022-11-18T12:34:05;100288.84;;;6.52;100.00
1207;BME280;593;53.184;8.216;2022-11-18T12:36:48;100278.31;;;6.50;100.00
1207;BME280;593;53.184;8.216;2022-11-18T12:42:00;100286.13;;;6.52;100.00
1207;BME280;593;53.184;8.216;2022-11-18T12:44:46;100302.34;;;6.52;100.00
1207;BME280;593;53.184;8.216;2022-11-18T12:47:13;100292.34;;;6.47;100.00
1207;BME280;593;53.184;8.216;2022-11-18T12:54:54;100313.44;;;6.50;100.00
1207;BME280;593;53.184;8.216;2022-11-18T12:57:26;100310.72;;;6.50;100.00
1207;BME280;593;53.184;8.216;2022-11-18T12:59:52;100304.25;;;6.51;100.00
1207;BME280;593;53.184;8.216;2022-11-18T13:02:26;100317.75;;;6.51;100.00
1207;BME280;593;53.184;8.216;2022-11-18T13:07:37;100304.78;;;6.48;100.00
1207;BME280;593;53.184;8.216;2022-11-18T13:10:24;100307.72;;;6.46;100.00
1207;BME280;593;53.184;8.216;2022-11-18T13:12:52;100300.97;;;6.44;100.00
1207;BME280;593;53.184;8.216;2022-11-18T13:15:18;100314.75;;;6.47;100.00
1207;BME280;593;53.184;8.216;2022-11-18T13:18:11;100315.84;;;6.52;100.00
1207;BME280;593;53.184;8.216;2022-11-18T13:20:38;100325.06;;;6.51;100.00
1207;BME280;593;53.184;8.216;2022-11-18T13:26:13;100315.84;;;6.52;100.00
1207;BME280;593;53.184;8.216;2022-11-18T13:31:48;100331.53;;;6.50;100.00
1207;BME280;593;53.184;8.216;2022-11-18T13:34:22;100328.28;;;6.47;100.00
1207;BME280;593;53.184;8.216;2022-11-18T13:36:51;100330.16;;;6.47;100.00
1207;BME280;593;53.184;8.216;2022-11-18T13:39:31;100335.00;;;6.45;100.00
1207;BME280;593;53.184;8.216;2022-11-18T13:44:28;100338.53;;;6.45;100.00
1207;BME280;593;53.184;8.216;2022-11-18T13:47:00;100346.09;;;6.43;100.00
1207;BME280;593;53.184;8.216;2022-11-18T13:49:49;100345.00;;;6.44;100.00
1207;BME280;593;53.184;8.216;2022-11-18T13:52:22;100346.88;;;6.44;100.00
1207;BME280;593;53.184;8.216;2022-11-18T13:54:52;100341.75;;;6.42;100.00
1207;BME280;593;53.184;8.216;2022-11-18T13:57:21;100349.31;;;6.40;100.00
1207;BME280;593;53.184;8.216;2022-11-18T13:59:48;100363.88;;;6.39;100.00
1207;BME280;593;53.184;8.216;2022-11-18T14:02:15;100362.00;;;6.40;100.00
1207;BME280;593;53.184;8.216;2022-11-18T14:04:56;100365.53;;;6.40;100.00
1207;BME280;593;53.184;8.216;2022-11-18T14:07:28;100369.03;;;6.41;100.00
1207;BME280;593;53.184;8.216;2022-11-18T14:10:00;100365.75;;;6.39;100.00
1207;BME280;593;53.184;8.216;2022-11-18T14:12:28;100369.00;;;6.36;100.00
1207;BME280;593;53.184;8.216;2022-11-18T14:15:18;100381.72;;;6.40;100.00
1207;BME280;593;53.184;8.216;2022-11-18T14:17:55;100382.25;;;6.37;100.00
1207;BME280;593;53.184;8.216;2022-11-18T14:20:22;100379.53;;;6.37;100.00
1207;BME280;593;53.184;8.216;2022-11-18T14:22:52;100377.59;;;6.28;100.00
1207;BME280;593;53.184;8.216;2022-11-18T14:25:21;100383.28;;;6.31;100.00
1207;BME280;593;53.184;8.216;2022-11-18T14:27:49;100394.06;;;6.31;100.00
1207;BME280;593;53.184;8.216;2022-11-18T14:30:35;100393.28;;;6.31;100.00
1207;BME280;593;53.184;8.216;2022-11-18T14:35:31;100392.94;;;6.22;100.00
1207;BME280;593;53.184;8.216;2022-11-18T14:37:57;100413.53;;;6.28;100.00
1207;BME280;593;53.184;8.216;2022-11-18T14:40:22;100412.41;;;6.24;100.00
1207;BME280;593;53.184;8.216;2022-11-18T14:42:47;100411.03;;;6.22;100.00
1207;BME280;593;53.184;8.216;2022-11-18T14:45:13;100416.94;;;6.19;100.00
1207;BME280;593;53.184;8.216;2022-11-18T14:47:39;100418.84;;;6.18;100.00
1207;BME280;593;53.184;8.216;2022-11-18T14:50:11;100421.56;;;6.18;100.00
1207;BME280;593;53.184;8.216;2022-11-18T14:52:37;100432.34;;;6.18;100.00
1207;BME280;593;53.184;8.216;2022-11-18T14:55:02;100426.38;;;6.16;100.00
1207;BME280;593;53.184;8.216;2022-11-18T14:57:28;100436.63;;;6.14;100.00
1207;BME280;593;53.184;8.216;2022-11-18T14:59:53;100429.31;;;6.10;100.00
1207;BME280;593;53.184;8.216;2022-11-18T15:02:18;100437.69;;;6.08;99.48
1207;BME280;593;53.184;8.216;2022-11-18T15:04:45;100437.91;;;6.07;100.00
1207;BME280;593;53.184;8.216;2022-11-18T15:07:12;100439.81;;;6.06;99.92
1207;BME280;593;53.184;8.216;2022-11-18T15:09:38;100448.16;;;6.05;99.84
1207;BME280;593;53.184;8.216;2022-11-18T15:12:04;100457.91;;;6.06;99.93
1207;BME280;593;53.184;8.216;2022-11-18T15:14:30;100451.66;;;6.00;100.00
1207;BME280;593;53.184;8.216;2022-11-18T15:16:57;100466.50;;;6.03;100.00
1207;BME280;593;53.184;8.216;2022-11-18T15:19:23;100470.03;;;6.03;100.00
1207;BME280;593;53.184;8.216;2022-11-18T15:21:49;100458.38;;;5.98;99.76
1207;BME280;593;53.184;8.216;2022-11-18T15:24:14;100467.81;;;5.95;99.44
1207;BME280;593;53.184;8.216;2022-11-18T15:26:42;100478.53;;;5.90;99.33
1207;BME280;593;53.184;8.216;2022-11-18T15:31:40;100483.13;;;5.90;99.37
1207;BME280;593;53.184;8.216;2022-11-18T15:34:05;100476.66;;;5.91;99.58
1207;BME280;593;53.184;8.216;2022-11-18T15:36:30;100490.41;;;5.89;99.88
1207;BME280;593;53.184;8.216;2022-11-18T15:38:56;100487.47;;;5.91;98.46
1207;BME280;593;53.184;8.216;2022-11-18T15:41:26;100490.41;;;5.89;99.21